Time;durP1;ratioP1;P1;durP2;ratioP2;P2;SDS_P1;SDS_P2;PMS_P1;PMS_P2;Temp;Humidity;BMP_temperature;BMP_pressure;BME280_temperature;BME280_humidity;BME280_pressure;Samples;Min_cycle;Max_cycle;Signal;HPM_P1;HPM_P2
2022/10/16 00:02:37;;;;;;;31.60;20.13;;;;;;;7.66;89.86;98420.34;10331805;28;20569;-57
2022/10/16 00:07:36;;;;;;;26.25;18.23;;;;;;;7.50;90.39;98416.59;10331726;28;20065;-58
2022/10/16 00:12:35;;;;;;;25.58;18.98;;;;;;;7.35;90.20;98421.38;10331521;28;20116;-57
2022/10/16 00:17:34;;;;;;;29.20;19.48;;;;;;;7.05;91.12;98430.16;10331375;28;20045;-57
2022/10/16 00:22:33;;;;;;;23.95;16.80;;;;;;;6.71;92.18;98439.66;10331365;28;20033;-57
2022/10/16 00:27:33;;;;;;;24.77;17.73;;;;;;;6.60;92.45;98446.25;10331146;28;20069;-57
2022/10/16 00:32:32;;;;;;;28.10;17.83;;;;;;;6.59;92.72;98452.25;10331160;28;20069;-57
2022/10/16 00:37:31;;;;;;;25.88;18.25;;;;;;;6.56;92.30;98444.41;10332550;28;20080;-57
2022/10/16 00:42:30;;;;;;;27.85;17.80;;;;;;;6.45;92.84;98440.69;10339118;28;20124;-57
2022/10/16 00:47:34;;;;;;;28.17;18.27;;;;;;;6.34;92.68;98448.13;10339307;28;20031;-57
2022/10/16 00:52:34;;;;;;;28.10;18.38;;;;;;;6.11;93.08;98450.94;10338720;28;20069;-57
2022/10/16 00:57:33;;;;;;;34.40;20.73;;;;;;;6.12;93.81;98449.25;10338223;28;20524;-57
2022/10/16 01:02:32;;;;;;;28.05;18.65;;;;;;;6.01;94.02;98454.09;10338364;28;20081;-57
2022/10/16 01:07:48;;;;;;;29.58;18.08;;;;;;;5.98;93.48;98460.06;10338230;28;20527;-57
2022/10/16 01:13:06;;;;;;;31.38;19.23;;;;;;;5.94;93.98;98453.06;10337857;28;20141;-57
2022/10/16 01:18:20;;;;;;;32.33;21.52;;;;;;;5.93;93.56;98441.00;10337652;28;20080;-57
2022/10/16 01:23:36;;;;;;;31.92;19.58;;;;;;;5.91;93.35;98450.41;10338374;28;20060;-58
2022/10/16 01:29:09;;;;;;;32.17;19.98;;;;;;;5.92;94.02;98459.00;10337238;28;20087;-57
2022/10/16 01:34:12;;;;;;;33.17;21.38;;;;;;;5.83;93.91;98459.59;10337199;28;20076;-57
2022/10/16 01:39:13;;;;;;;31.88;20.63;;;;;;;5.83;93.65;98459.59;10337090;28;20068;-58
2022/10/16 01:44:43;;;;;;;31.50;21.05;;;;;;;5.79;93.20;98457.78;10336584;28;20069;-57
2022/10/16 01:49:44;;;;;;;33.27;19.30;;;;;;;5.75;93.81;98456.81;10323204;28;20081;-58
2022/10/16 01:54:48;;;;;;;29.92;19.75;;;;;;;5.55;94.03;98443.34;10336754;28;20069;-58
2022/10/16 01:59:52;;;;;;;29.85;19.17;;;;;;;5.66;94.02;98465.97;10335937;28;20084;-57
2022/10/16 02:05:12;;;;;;;33.08;20.23;;;;;;;5.60;93.70;98476.94;10335747;28;20073;-58
2022/10/16 02:10:11;;;;;;;29.95;18.30;;;;;;;5.58;94.19;98476.03;10335819;28;20076;-57
2022/10/16 02:15:10;;;;;;;30.27;19.02;;;;;;;5.47;93.96;98460.25;10335668;28;20037;-57
2022/10/16 02:20:10;;;;;;;30.48;19.25;;;;;;;5.51;94.13;98482.69;10335460;28;20083;-57
2022/10/16 02:25:17;;;;;;;30.02;19.75;;;;;;;5.45;93.74;98487.66;10335110;28;20057;-58
2022/10/16 02:30:25;;;;;;;29.67;19.88;;;;;;;5.37;94.02;98483.06;10335160;28;20067;-58
2022/10/16 02:35:25;;;;;;;29.77;19.70;;;;;;;5.26;93.82;98485.34;10334651;28;20493;-57
2022/10/16 02:40:26;;;;;;;28.67;19.17;;;;;;;5.12;93.71;98487.47;10334736;28;20520;-57
2022/10/16 02:45:25;;;;;;;29.73;19.38;;;;;;;4.98;94.01;98499.00;10334111;28;20164;-58
2022/10/16 02:50:25;;;;;;;31.27;20.65;;;;;;;4.88;94.06;98500.38;10334423;28;20073;-57
2022/10/16 02:55:24;;;;;;;31.23;19.67;;;;;;;4.81;94.29;98503.56;10334589;28;20080;-58
2022/10/16 03:00:23;;;;;;;30.05;19.67;;;;;;;4.75;94.16;98503.34;10333608;28;20096;-58
2022/10/16 03:05:21;;;;;;;29.42;19.15;;;;;;;4.70;94.22;98503.19;10333450;28;20035;-58
2022/10/16 03:10:21;;;;;;;30.20;18.85;;;;;;;4.63;94.24;98508.94;10333395;28;20129;-57
2022/10/16 03:15:19;;;;;;;28.52;18.60;;;;;;;4.57;94.33;98499.31;10333290;28;20487;-58
2022/10/16 03:20:18;;;;;;;30.33;18.70;;;;;;;4.49;94.54;98505.88;10332927;28;20496;-57
2022/10/16 03:25:18;;;;;;;31.35;18.27;;;;;;;4.36;95.09;98516.53;10333006;28;20029;-58
2022/10/16 03:30:16;;;;;;;32.50;19.20;;;;;;;4.29;94.93;98518.00;10332689;28;20464;-57
2022/10/16 03:35:15;;;;;;;30.90;18.92;;;;;;;4.24;95.18;98517.88;10332441;28;20407;-58
2022/10/16 03:40:15;;;;;;;36.10;20.15;;;;;;;4.23;95.18;98520.38;10332769;28;20043;-57
2022/10/16 03:45:14;;;;;;;32.67;19.90;;;;;;;4.19;95.20;98527.06;10332341;28;20961;-57
2022/10/16 03:50:13;;;;;;;36.92;24.27;;;;;;;4.15;95.75;98521.78;10331891;28;20381;-57
2022/10/16 03:55:12;;;;;;;37.30;25.05;;;;;;;4.10;95.59;98524.16;10332539;28;20065;-57
2022/10/16 04:00:12;;;;;;;35.08;21.60;;;;;;;4.00;96.15;98528.09;10331738;28;20057;-57
2022/10/16 04:05:10;;;;;;;32.50;20.35;;;;;;;3.98;96.19;98528.84;10331524;28;20065;-58
2022/10/16 04:10:10;;;;;;;35.78;21.10;;;;;;;4.00;95.97;98522.09;10331169;28;20039;-57
2022/10/16 04:15:09;;;;;;;44.75;24.52;;;;;;;4.05;96.14;98521.44;10323305;28;20552;-57
2022/10/16 04:20:09;;;;;;;24.90;17.38;;;;;;;4.09;95.94;98532.72;10329933;28;20477;-57
2022/10/16 04:25:08;;;;;;;25.55;16.15;;;;;;;4.13;95.68;98528.53;10329636;28;20493;-57
2022/10/16 04:30:08;;;;;;;25.38;15.70;;;;;;;4.08;95.02;98544.69;10329114;28;20068;-57
2022/10/16 04:35:07;;;;;;;23.45;15.55;;;;;;;4.07;94.60;98547.19;10328755;28;20052;-57
2022/10/16 04:40:06;;;;;;;;;;;;;;;4.17;95.04;98551.84;10330128;28;20072;-57
2022/10/16 04:45:06;;;;;;;26.58;15.90;;;;;;;4.27;94.99;98555.66;10328721;28;20385;-57
2022/10/16 04:50:06;;;;;;;24.38;15.65;;;;;;;4.40;94.71;98559.53;10328760;28;20079;-57
2022/10/16 04:55:05;;;;;;;24.48;16.58;;;;;;;4.50;94.60;98556.44;10329118;28;20491;-57
2022/10/16 05:00:05;;;;;;;;;;;;;;;4.63;94.51;98563.78;10329161;28;20492;-57
2022/10/16 05:05:04;;;;;;;39.63;23.53;;;;;;;4.61;94.71;98538.84;10329274;28;20394;-57
2022/10/16 05:10:03;;;;;;;30.63;19.05;;;;;;;4.91;95.10;98565.63;10328173;28;20061;-57
2022/10/16 05:15:02;;;;;;;;;;;;;;;5.05;94.98;98576.41;10327557;28;20074;-58
2022/10/16 05:20:03;;;;;;;26.83;17.02;;;;;;;5.10;94.63;98577.44;10325216;28;19967;-57
2022/10/16 05:25:02;;;;;;;24.45;17.85;;;;;;;5.21;93.63;98589.81;10327161;28;20072;-58
2022/10/16 05:30:01;;;;;;;30.00;18.80;;;;;;;5.33;93.54;98590.22;10333340;28;20090;-57
2022/10/16 05:35:00;;;;;;;29.52;18.45;;;;;;;5.40;93.15;98589.59;10335328;28;20037;-57
2022/10/16 05:39:59;;;;;;;50.03;30.40;;;;;;;5.25;93.21;98589.97;10335180;28;20065;-57
2022/10/16 05:44:58;;;;;;;56.75;31.02;;;;;;;5.20;94.00;98598.34;10334971;28;20037;-57
2022/10/16 05:49:57;;;;;;;64.97;33.17;;;;;;;5.18;94.95;98605.13;10335270;28;20512;-57
2022/10/16 05:54:56;;;;;;;71.70;33.58;;;;;;;5.22;94.41;98614.72;10334554;28;20061;-57
2022/10/16 05:59:55;;;;;;;62.42;36.13;;;;;;;5.26;94.88;98608.84;10334830;28;20044;-57
2022/10/16 06:04:54;;;;;;;75.65;37.05;;;;;;;5.44;95.30;98612.03;10334192;28;20073;-57
2022/10/16 06:09:53;;;;;;;50.30;27.70;;;;;;;5.55;95.10;98618.41;10333895;28;20040;-57
2022/10/16 06:14:52;;;;;;;41.05;24.67;;;;;;;5.79;95.92;98621.72;10333896;28;20036;-57
2022/10/16 06:19:51;;;;;;;45.92;24.33;;;;;;;6.07;95.50;98639.81;10333643;28;20517;-57
2022/10/16 06:24:50;;;;;;;42.83;23.13;;;;;;;6.18;95.74;98633.25;10333126;28;20916;-57
2022/10/16 06:29:49;;;;;;;47.28;27.40;;;;;;;6.21;95.38;98637.66;10332037;28;20412;-57
2022/10/16 06:34:48;;;;;;;84.72;29.27;;;;;;;6.39;94.97;98652.78;10332891;28;20052;-57
2022/10/16 06:39:47;;;;;;;48.78;28.23;;;;;;;6.52;94.49;98659.19;10332980;28;20033;-57
2022/10/16 06:44:46;;;;;;;42.28;26.27;;;;;;;6.58;94.31;98664.50;10332867;28;20029;-57
2022/10/16 06:49:45;;;;;;;41.67;27.77;;;;;;;6.70;95.16;98664.00;10332275;28;20387;-57
2022/10/16 06:54:44;;;;;;;52.38;28.88;;;;;;;6.98;94.21;98673.41;10332439;28;20036;-57
2022/10/16 06:59:43;;;;;;;47.55;30.95;;;;;;;6.96;93.56;98667.31;10331979;28;20558;-57
2022/10/16 07:04:42;;;;;;;50.72;31.83;;;;;;;7.14;93.99;98683.31;10332027;28;20444;-57
2022/10/16 07:09:41;;;;;;;49.97;34.72;;;;;;;7.36;92.42;98682.19;10331386;28;20393;-57
2022/10/16 07:14:39;;;;;;;52.45;35.83;;;;;;;7.36;92.08;98682.19;10331483;28;20028;-57
2022/10/16 07:19:39;;;;;;;52.00;35.25;;;;;;;7.44;91.38;98682.44;10331429;28;20121;-57
2022/10/16 07:24:38;;;;;;;54.28;38.15;;;;;;;7.39;91.73;98682.28;10331188;28;20064;-57
2022/10/16 07:29:37;;;;;;;48.83;35.03;;;;;;;7.38;91.44;98685.69;10331376;28;20037;-57
2022/10/16 07:34:36;;;;;;;50.20;36.35;;;;;;;7.35;92.02;98689.91;10330582;28;20056;-58
2022/10/16 07:39:34;;;;;;;55.58;41.38;;;;;;;7.39;92.93;98684.00;10330916;28;20080;-57
2022/10/16 07:44:33;;;;;;;45.45;32.42;;;;;;;7.45;92.93;98684.16;10330267;28;20043;-57
2022/10/16 07:49:32;;;;;;;35.60;27.02;;;;;;;7.55;92.77;98686.16;10329898;28;20359;-57
2022/10/16 07:54:31;;;;;;;38.85;28.42;;;;;;;7.61;93.69;98673.41;10329710;28;20510;-58
2022/10/16 07:59:31;;;;;;;31.08;24.42;;;;;;;7.77;93.54;98694.47;10330396;28;20442;-57
2022/10/16 08:04:29;;;;;;;;;;;;;;;7.88;93.35;98696.47;10330118;28;20501;-57
2022/10/16 08:09:28;;;;;;;23.15;17.13;;;;;;;7.91;93.90;98692.22;10330064;28;19959;-58
2022/10/16 08:14:27;;;;;;;24.15;17.70;;;;;;;8.11;93.74;98687.53;10329307;28;20041;-57
2022/10/16 08:19:26;;;;;;;27.05;18.60;;;;;;;8.30;93.89;98684.56;10330433;28;20029;-57
2022/10/16 08:24:26;;;;;;;25.05;19.80;;;;;;;8.52;93.38;98679.00;10329603;28;20112;-57
2022/10/16 08:29:25;;;;;;;24.00;19.45;;;;;;;8.85;92.65;98680.56;10329644;28;20488;-58
2022/10/16 08:34:24;;;;;;;28.05;18.20;;;;;;;9.01;92.27;98673.13;10328846;28;20444;-57
2022/10/16 08:39:23;;;;;;;24.48;19.67;;;;;;;9.27;91.50;98679.66;10329471;28;20091;-58
2022/10/16 08:44:49;;;;;;;26.08;18.33;;;;;;;9.67;90.44;98676.97;10329715;28;20124;-57
2022/10/16 08:49:59;;;;;;;26.05;21.02;;;;;;;10.00;90.02;98679.25;10329268;28;20065;-58
2022/10/16 08:54:58;;;;;;;24.27;18.70;;;;;;;10.29;86.00;98676.25;10329095;28;20076;-58
2022/10/16 09:00:04;;;;;;;21.02;15.25;;;;;;;10.58;85.69;98677.50;10332149;28;20132;-58
2022/10/16 09:05:25;;;;;;;25.73;15.70;;;;;;;10.91;84.79;98673.66;10336435;28;20069;-58
2022/10/16 09:10:39;;;;;;;11.95;8.27;;;;;;;11.12;81.17;98685.16;10336430;28;20574;-58
2022/10/16 09:16:15;;;;;;;10.85;7.07;;;;;;;11.52;77.90;98675.19;10335795;28;20068;-58
2022/10/16 09:21:23;;;;;;;9.93;5.82;;;;;;;11.79;73.19;98666.78;10336361;28;20072;-58
2022/10/16 09:26:22;;;;;;;20.70;6.75;;;;;;;12.06;71.23;98664.44;10336106;28;20061;-59
2022/10/16 09:31:22;;;;;;;9.13;6.35;;;;;;;12.34;68.83;98653.34;10336707;28;20032;-58
2022/10/16 09:36:25;;;;;;;8.05;5.68;;;;;;;12.66;65.57;98653.53;10335101;28;20523;-58
2022/10/16 09:41:25;;;;;;;10.32;5.45;;;;;;;12.99;65.03;98652.81;10335630;28;20456;-58
2022/10/16 09:46:26;;;;;;;10.00;5.55;;;;;;;13.21;62.65;98647.66;10334620;28;20073;-58
2022/10/16 09:51:35;;;;;;;10.45;5.60;;;;;;;13.37;59.78;98639.00;10335524;28;20072;-58
2022/10/16 09:56:36;;;;;;;9.27;5.57;;;;;;;13.54;58.75;98632.13;10334401;28;20077;-58
2022/10/16 10:01:45;;;;;;;7.95;5.70;;;;;;;13.89;57.96;98630.41;10334744;28;20129;-58
2022/10/16 10:06:54;;;;;;;7.88;5.50;;;;;;;14.04;56.79;98621.72;10333776;28;20567;-58
2022/10/16 10:11:57;;;;;;;9.60;5.35;;;;;;;14.19;57.39;98619.97;10333612;28;20504;-58
2022/10/16 10:17:05;;;;;;;7.18;5.20;;;;;;;14.38;56.89;98604.22;10333391;28;20124;-58
2022/10/16 10:22:21;;;;;;;9.20;4.95;;;;;;;14.51;52.79;98610.28;10333810;28;20519;-59
2022/10/16 10:27:23;;;;;;;11.15;5.53;;;;;;;14.65;52.56;98611.13;10333561;28;20057;-58
2022/10/16 10:33:04;;;;;;;7.85;5.47;;;;;;;14.80;52.60;98603.25;10333575;28;20075;-58
2022/10/16 10:38:03;;;;;;;;;;;;;;;14.96;53.09;98597.94;10333185;28;20077;-59
2022/10/16 10:43:35;;;;;;;9.07;4.53;;;;;;;14.98;50.37;98598.81;10332563;28;20402;-59
2022/10/16 10:48:58;;;;;;;8.93;5.15;;;;;;;15.16;49.90;98590.88;10332015;28;20311;-59
2022/10/16 10:54:10;;;;;;;7.57;4.30;;;;;;;15.07;48.85;98593.53;10331860;28;20076;-59
2022/10/16 10:59:25;;;;;;;8.75;4.60;;;;;;;15.32;49.12;98590.75;10331203;28;20077;-59
2022/10/16 11:04:54;;;;;;;11.65;5.82;;;;;;;15.40;48.35;98586.34;10332359;28;20067;-59
2022/10/16 11:09:58;;;;;;;6.63;4.80;;;;;;;15.56;47.86;98577.50;10332111;28;20057;-59
2022/10/16 11:15:11;;;;;;;7.35;4.88;;;;;;;15.79;46.60;98568.66;10330164;28;20578;-59
2022/10/16 11:20:15;;;;;;;8.70;4.88;;;;;;;15.78;45.79;98562.50;10332475;28;20535;-59
2022/10/16 11:25:20;;;;;;;8.25;5.30;;;;;;;16.00;46.00;98557.97;10331743;28;20072;-59
2022/10/16 11:30:26;;;;;;;7.20;4.53;;;;;;;15.97;45.71;98547.50;10330852;28;20073;-59
2022/10/16 11:35:38;;;;;;;6.40;4.75;;;;;;;16.10;45.25;98553.50;10330765;28;20500;-59
2022/10/16 11:40:41;;;;;;;7.47;4.90;;;;;;;16.08;44.05;98550.03;10329867;28;20453;-59
2022/10/16 11:45:48;;;;;;;6.07;4.50;;;;;;;16.12;42.97;98550.88;10329356;28;20088;-59
2022/10/16 11:50:58;;;;;;;6.88;4.13;;;;;;;16.16;42.63;98531.59;10329780;28;20060;-59
2022/10/16 11:55:57;;;;;;;9.23;4.68;;;;;;;16.36;43.47;98545.34;10329761;28;20080;-59
2022/10/16 12:01:05;;;;;;;;;;;;;;;16.59;43.00;98552.09;10327132;28;20049;-59
2022/10/16 12:06:23;;;;;;;8.60;4.25;;;;;;;16.82;43.00;98550.06;10324824;28;19921;-59
2022/10/16 12:11:28;;;;;;;7.82;3.95;;;;;;;16.97;42.19;98550.75;10327167;28;20084;-59
2022/10/16 12:16:27;;;;;;;7.57;3.92;;;;;;;17.11;42.40;98547.03;10329477;28;20065;-59
2022/10/16 12:21:29;;;;;;;;;;;;;;;17.12;41.47;98547.88;10330342;28;20029;-60
2022/10/16 12:26:32;;;;;;;8.35;4.78;;;;;;;17.17;40.10;98545.19;10329549;28;19960;-59
2022/10/16 12:31:42;;;;;;;7.43;5.07;;;;;;;17.05;39.25;98549.75;10329930;28;20076;-59
2022/10/16 12:36:41;;;;;;;7.30;4.28;;;;;;;17.06;39.04;98548.00;10333537;28;20072;-59
2022/10/16 12:41:40;;;;;;;11.32;6.72;;;;;;;17.19;38.26;98543.41;10338090;28;20064;-59
2022/10/16 12:46:40;;;;;;;10.70;8.00;;;;;;;17.22;37.55;98544.25;10337135;28;20021;-59
2022/10/16 12:51:40;;;;;;;5.68;3.38;;;;;;;17.36;37.40;98544.03;10337122;28;20069;-60
2022/10/16 12:56:51;;;;;;;8.23;4.70;;;;;;;17.38;36.69;98542.25;10336534;28;20080;-59
2022/10/16 13:02:08;;;;;;;9.23;4.40;;;;;;;17.50;36.83;98542.06;10337428;28;20075;-60
2022/10/16 13:07:37;;;;;;;9.02;4.38;;;;;;;17.33;36.88;98557.19;10336705;28;20535;-60
2022/10/16 13:12:57;;;;;;;8.13;4.00;;;;;;;17.29;36.63;98551.13;10329392;28;20576;-59
2022/10/16 13:18:07;;;;;;;7.18;3.67;;;;;;;17.33;35.56;98542.34;10336160;28;20072;-60
2022/10/16 13:23:22;;;;;;;8.90;4.57;;;;;;;17.56;36.00;98548.94;10336223;28;20068;-60
2022/10/16 13:28:27;;;;;;;7.70;3.70;;;;;;;17.25;35.73;98548.56;10335473;28;20068;-59
2022/10/16 13:33:34;;;;;;;5.70;3.72;;;;;;;17.42;36.38;98543.06;10336488;28;20076;-59
2022/10/16 13:38:35;;;;;;;5.70;3.42;;;;;;;17.38;35.57;98551.88;10335716;28;20073;-59
2022/10/16 13:43:36;;;;;;;4.05;3.28;;;;;;;17.29;35.91;98552.91;10335881;28;20076;-59
2022/10/16 13:48:35;;;;;;;6.70;4.30;;;;;;;17.07;36.23;98547.94;10333787;28;20068;-59
2022/10/16 13:53:35;;;;;;;8.68;3.70;;;;;;;17.08;36.52;98564.56;10335767;28;20045;-59
2022/10/16 13:58:34;;;;;;;10.07;6.03;;;;;;;17.00;37.28;98574.28;10334401;28;20077;-59
2022/10/16 14:03:34;;;;;;;;;;;;;;;17.00;37.11;98577.75;10335192;28;20044;-59
2022/10/16 14:08:33;;;;;;;11.25;6.82;;;;;;;17.00;36.72;98577.75;10334113;28;19966;-59
2022/10/16 14:13:55;;;;;;;16.08;8.65;;;;;;;17.00;36.95;98567.28;10333636;28;20063;-59
2022/10/16 14:19:01;;;;;;;10.40;5.93;;;;;;;17.07;36.98;98581.19;10333736;28;20068;-59
2022/10/16 14:24:11;;;;;;;9.65;7.32;;;;;;;17.06;37.59;98585.56;10334166;28;20065;-59
2022/10/16 14:29:13;;;;;;;10.18;6.43;;;;;;;16.95;37.95;98592.69;10333601;28;20527;-59
2022/10/16 14:34:27;;;;;;;21.17;11.25;;;;;;;16.79;38.18;98589.38;10332397;28;20067;-59
2022/10/16 14:39:26;;;;;;;12.80;8.63;;;;;;;16.72;38.33;98595.56;10332224;28;20095;-59
2022/10/16 14:44:33;;;;;;;15.13;8.40;;;;;;;16.63;38.99;98585.19;10331347;28;20077;-59
2022/10/16 14:49:32;;;;;;;15.88;10.05;;;;;;;16.57;39.35;98609.75;10332858;28;20065;-59
2022/10/16 14:54:31;;;;;;;17.88;8.23;;;;;;;16.42;39.70;98607.28;10331249;28;20504;-59
2022/10/16 14:59:32;;;;;;;;;;;;;;;16.18;39.96;98614.50;10330121;28;20056;-59
2022/10/16 15:04:31;;;;;;;8.60;5.85;;;;;;;16.01;40.53;98614.66;10329314;28;19952;-59
2022/10/16 15:09:30;;;;;;;;;;;;;;;15.88;40.82;98618.28;10329615;28;20155;-59
2022/10/16 15:14:28;;;;;;;13.30;7.97;;;;;;;15.67;41.16;98612.31;10328376;28;19916;-59
2022/10/16 15:19:27;;;;;;;12.90;8.13;;;;;;;15.55;41.61;98622.88;10330873;28;20022;-59
2022/10/16 15:24:26;;;;;;;;;;;;;;;15.33;42.23;98639.59;10331775;28;20037;-59
2022/10/16 15:29:25;;;;;;;10.65;7.00;;;;;;;15.18;42.17;98638.78;10330622;28;19952;-59
2022/10/16 15:34:24;;;;;;;;;;;;;;;15.01;42.80;98651.06;10330974;28;20108;-59
2022/10/16 15:39:23;;;;;;;16.08;9.40;;;;;;;14.79;43.06;98645.94;10330548;28;20416;-59
2022/10/16 15:44:29;;;;;;;;;;;;;;;14.73;43.48;98656.41;10331356;28;20456;-59
2022/10/16 15:49:28;;;;;;;13.35;9.25;;;;;;;14.47;44.21;98642.50;10329385;28;19952;-59
2022/10/16 15:54:26;;;;;;;;;;;;;;;14.38;45.02;98667.78;10330526;28;20104;-59
2022/10/16 15:59:25;;;;;;;18.85;12.30;;;;;;;14.18;45.75;98675.63;10330576;28;19963;-59
2022/10/16 16:04:24;;;;;;;20.02;11.88;;;;;;;13.95;46.96;98683.47;10329910;28;20033;-59
2022/10/16 16:09:23;;;;;;;24.95;14.93;;;;;;;13.70;47.92;98690.41;10328836;28;20028;-59
2022/10/16 16:14:24;;;;;;;32.10;19.83;;;;;;;13.46;49.27;98696.41;10330378;28;20030;-59
2022/10/16 16:19:23;;;;;;;28.00;17.92;;;;;;;13.22;50.22;98702.41;10330390;28;20065;-59
2022/10/16 16:24:22;;;;;;;24.40;15.52;;;;;;;12.96;50.85;98715.34;10329211;28;20089;-59
2022/10/16 16:29:21;;;;;;;26.60;16.58;;;;;;;12.69;51.55;98724.72;10329303;28;20061;-59
2022/10/16 16:34:20;;;;;;;26.73;18.33;;;;;;;12.46;52.58;98723.72;10329238;28;20047;-59
2022/10/16 16:39:19;;;;;;;27.23;18.98;;;;;;;12.18;53.01;98731.31;10328319;28;20091;-59
2022/10/16 16:44:18;;;;;;;;;;;;;;;12.04;53.96;98752.00;10329760;28;20069;-59
2022/10/16 16:49:17;;;;;;;21.80;16.45;;;;;;;11.85;54.54;98761.34;10328367;28;19917;-59
2022/10/16 16:54:16;;;;;;;22.55;16.50;;;;;;;11.63;54.73;98748.97;10328401;28;20524;-59
2022/10/16 16:59:17;;;;;;;;;;;;;;;11.55;55.60;98776.59;10329303;28;20081;-59
2022/10/16 17:04:17;;;;;;;24.02;17.08;;;;;;;11.38;55.83;98782.47;10328517;28;19959;-59
2022/10/16 17:09:16;;;;;;;24.52;17.85;;;;;;;11.22;56.82;98783.13;10326943;28;20064;-59
2022/10/16 17:14:15;;;;;;;;;;;;;;;11.01;57.97;98784.59;10328073;28;20349;-59
2022/10/16 17:19:16;;;;;;;19.00;12.65;;;;;;;10.87;57.96;98796.53;10329584;28;20174;-59
2022/10/16 17:24:15;;;;;;;18.90;13.15;;;;;;;10.72;59.26;98799.72;10333567;28;20555;-59
2022/10/16 17:29:15;;;;;;;18.33;13.38;;;;;;;10.50;59.48;98800.25;10335905;28;20065;-59
2022/10/16 17:34:14;;;;;;;15.05;11.23;;;;;;;10.25;60.77;98786.88;10335200;28;20631;-59
2022/10/16 17:39:16;;;;;;;;;;;;;;;10.22;61.66;98811.91;10335420;28;20075;-59
2022/10/16 17:44:19;;;;;;;32.45;22.65;;;;;;;10.06;62.12;98818.53;10334760;28;20478;-59
2022/10/16 17:49:19;;;;;;;43.83;29.08;;;;;;;9.94;62.87;98816.56;10334978;28;20088;-59
2022/10/16 17:54:18;;;;;;;41.42;29.48;;;;;;;9.83;63.23;98813.78;10333444;28;20072;-59
2022/10/16 17:59:21;;;;;;;;;;;;;;;9.69;64.01;98829.06;10335262;28;20084;-59
2022/10/16 18:04:20;;;;;;;46.45;32.65;;;;;;;9.60;63.98;98833.19;10333824;28;20383;-59
2022/10/16 18:09:19;;;;;;;46.60;32.92;;;;;;;9.51;64.74;98833.88;10333218;28;20570;-59
2022/10/16 18:14:18;;;;;;;43.35;30.13;;;;;;;9.41;65.35;98831.94;10333500;28;20538;-59
2022/10/16 18:19:18;;;;;;;41.85;29.60;;;;;;;9.34;65.93;98836.09;10334188;28;20568;-59
2022/10/16 18:24:18;;;;;;;35.40;24.27;;;;;;;9.23;66.20;98832.38;10332592;28;20073;-59
2022/10/16 18:29:17;;;;;;;28.73;20.23;;;;;;;9.19;66.72;98846.13;10333751;28;20061;-59
2022/10/16 18:34:16;;;;;;;25.17;18.38;;;;;;;9.11;67.37;98853.69;10331881;28;20040;-59
2022/10/16 18:39:17;;;;;;;24.88;18.98;;;;;;;8.99;67.76;98869.81;10332084;28;20080;-59
2022/10/16 18:44:16;;;;;;;25.15;18.25;;;;;;;8.91;68.28;98872.25;10332375;28;20084;-59
2022/10/16 18:49:15;;;;;;;30.15;22.40;;;;;;;8.86;68.61;98873.84;10332388;28;20493;-59
2022/10/16 18:54:14;;;;;;;32.05;22.40;;;;;;;8.77;69.36;98884.00;10331210;28;20501;-59
2022/10/16 18:59:13;;;;;;;29.33;19.00;;;;;;;8.65;69.72;98894.06;10331385;28;20096;-59
2022/10/16 19:04:14;;;;;;;29.17;18.83;;;;;;;8.57;69.88;98903.31;10332085;28;20048;-59
2022/10/16 19:09:15;;;;;;;28.58;18.85;;;;;;;8.47;70.62;98910.84;10330717;28;20072;-59
2022/10/16 19:14:15;;;;;;;29.33;21.08;;;;;;;8.38;71.02;98909.72;10330666;28;20345;-59
2022/10/16 19:19:17;;;;;;;36.08;25.90;;;;;;;8.28;71.97;98918.97;10331606;28;20504;-59
2022/10/16 19:24:16;;;;;;;43.15;25.73;;;;;;;8.21;73.23;98917.03;10330928;28;20076;-59
2022/10/16 19:29:15;;;;;;;38.05;23.95;;;;;;;8.16;73.18;98926.38;10328958;28;20041;-59
2022/10/16 19:34:14;;;;;;;28.60;18.85;;;;;;;8.14;73.59;98923.75;10330722;28;20064;-59
2022/10/16 19:39:15;;;;;;;25.27;17.95;;;;;;;8.07;73.76;98934.75;10330286;28;20042;-59
2022/10/16 19:44:16;;;;;;;27.15;17.83;;;;;;;8.01;73.94;98934.56;10328405;28;20072;-59
2022/10/16 19:49:19;;;;;;;28.20;19.90;;;;;;;7.92;75.10;98940.38;10330369;28;20072;-59
2022/10/16 19:54:19;;;;;;;39.35;26.30;;;;;;;7.83;75.69;98945.28;10329441;28;20115;-59
2022/10/16 19:59:19;;;;;;;48.88;33.38;;;;;;;7.74;75.85;98957.94;10329620;28;20089;-59
2022/10/16 20:04:18;;;;;;;47.22;32.00;;;;;;;7.68;76.21;98957.75;10329714;28;20072;-59
2022/10/16 20:09:16;;;;;;;44.42;29.48;;;;;;;7.57;77.56;98962.56;10329503;28;20033;-59
2022/10/16 20:14:15;;;;;;;46.58;31.85;;;;;;;7.50;76.95;98958.97;10328870;28;20113;-59
2022/10/16 20:19:14;;;;;;;58.90;39.20;;;;;;;7.45;77.02;98961.41;10328287;28;20397;-59
2022/10/16 20:24:14;;;;;;;67.05;44.15;;;;;;;7.36;78.81;98963.66;10328379;28;20083;-59
2022/10/16 20:29:13;;;;;;;60.80;37.83;;;;;;;7.30;78.79;98966.03;10329053;28;20069;-59
2022/10/16 20:34:12;;;;;;;45.65;28.83;;;;;;;7.17;80.12;98967.38;10329341;28;20079;-59
2022/10/16 20:39:12;;;;;;;42.60;28.95;;;;;;;7.11;79.77;98977.47;10328972;28;20069;-59
2022/10/16 20:44:11;;;;;;;42.67;31.40;;;;;;;7.07;79.84;98969.59;10328804;28;20069;-59
2022/10/16 20:49:10;;;;;;;46.38;29.90;;;;;;;7.01;80.37;98975.44;10329329;28;20021;-59
2022/10/16 20:54:10;;;;;;;49.45;33.22;;;;;;;6.96;80.74;98979.56;10328969;28;20033;-59
2022/10/16 20:59:11;;;;;;;50.30;32.83;;;;;;;6.87;80.41;98979.28;10336646;28;20506;-59
2022/10/16 21:04:10;;;;;;;56.35;39.15;;;;;;;6.69;80.46;98972.66;10335104;28;20069;-59
2022/10/16 21:09:09;;;;;;;56.35;39.33;;;;;;;6.64;81.12;98986.22;10336380;28;20099;-59
2022/10/16 21:14:08;;;;;;;64.88;45.13;;;;;;;6.57;81.96;98982.56;10335587;28;20492;-59
2022/10/16 21:19:07;;;;;;;62.13;43.70;;;;;;;6.43;82.33;98984.66;10336284;28;20053;-59
2022/10/16 21:24:07;;;;;;;49.42;34.72;;;;;;;6.29;82.96;98985.88;10335451;28;20069;-59
2022/10/16 21:29:06;;;;;;;48.70;34.72;;;;;;;6.25;82.96;98987.44;10335727;28;20057;-59
2022/10/16 21:34:05;;;;;;;47.50;33.00;;;;;;;6.19;83.25;98993.28;10336274;28;20079;-59
2022/10/16 21:39:16;;;;;;;51.08;35.97;;;;;;;6.12;83.22;98999.03;10334976;28;20037;-59
2022/10/16 21:44:16;;;;;;;51.80;35.03;;;;;;;6.05;82.82;98996.19;10334850;28;20076;-59
2022/10/16 21:49:16;;;;;;;51.53;34.58;;;;;;;5.98;83.77;99002.81;10335218;28;20076;-59
2022/10/16 21:54:18;;;;;;;43.67;31.10;;;;;;;5.94;83.52;99019.81;10334635;28;20065;-59
2022/10/16 21:59:18;;;;;;;47.42;31.13;;;;;;;5.87;83.25;99015.25;10334578;28;20081;-59
2022/10/16 22:04:17;;;;;;;46.10;31.00;;;;;;;5.86;83.78;99021.25;10333069;28;20069;-59
2022/10/16 22:09:16;;;;;;;43.92;30.20;;;;;;;5.84;83.74;99022.00;10332602;28;20080;-59
2022/10/16 22:14:17;;;;;;;47.45;31.73;;;;;;;5.81;83.69;99027.03;10330859;28;20124;-59
2022/10/16 22:19:20;;;;;;;46.63;30.75;;;;;;;5.71;84.24;99024.09;10331732;28;20488;-56
2022/10/16 22:24:19;;;;;;;47.67;33.70;;;;;;;5.74;84.19;99047.41;10332926;28;20070;-56
2022/10/16 22:29:18;;;;;;;64.72;42.92;;;;;;;5.56;85.38;99041.53;10333068;28;20056;-57
2022/10/16 22:34:17;;;;;;;58.53;38.70;;;;;;;5.48;85.93;99048.06;10332885;28;20044;-57
2022/10/16 22:39:16;;;;;;;55.95;36.95;;;;;;;5.36;86.16;99039.84;10333135;28;20215;-57
2022/10/16 22:44:15;;;;;;;53.85;34.60;;;;;;;5.39;86.48;99058.91;10332818;28;20096;-57
2022/10/16 22:49:16;;;;;;;72.72;48.95;;;;;;;5.09;87.48;99063.66;10332626;28;20033;-57
2022/10/16 22:54:15;;;;;;;72.00;47.08;;;;;;;4.98;87.11;99065.78;10332041;28;20077;-57
2022/10/16 22:59:14;;;;;;;65.50;43.40;;;;;;;4.95;86.84;99065.66;10331108;28;20088;-57
2022/10/16 23:04:13;;;;;;;78.47;49.78;;;;;;;4.89;86.77;99068.78;10331221;28;20073;-57
2022/10/16 23:09:12;;;;;;;82.00;50.70;;;;;;;4.84;86.94;99067.72;10331880;28;20032;-57
2022/10/16 23:14:11;;;;;;;69.45;42.10;;;;;;;4.80;86.76;99070.09;10331262;28;20104;-57
2022/10/16 23:19:10;;;;;;;51.53;33.47;;;;;;;4.76;87.01;99075.91;10330863;28;20045;-57